createdAt,value
2017-11-04T00:00:15.752Z,87.14
2017-11-04T00:00:56.266Z,86.86
2017-11-04T00:01:36.720Z,86.86
2017-11-04T00:02:17.254Z,87.14
2017-11-04T00:04:37.146Z,85.91
2017-11-04T00:05:17.201Z,85.91
2017-11-04T00:05:57.626Z,86.19
2017-11-04T00:06:38.121Z,85.62
2017-11-04T00:07:18.568Z,85.24
2017-11-04T00:07:58.997Z,85.34
2017-11-04T00:08:39.413Z,86
2017-11-04T00:09:19.837Z,86.67
2017-11-04T00:10:00.126Z,85.91
2017-11-04T00:10:40.557Z,85.53
2017-11-04T00:11:20.951Z,84.48
2017-11-04T00:12:01.358Z,84.77
2017-11-04T00:12:41.758Z,84.77
2017-11-04T00:13:22.148Z,84.48
2017-11-04T00:14:02.566Z,84.29
2017-11-04T00:14:42.984Z,84.67
2017-11-04T00:15:23.404Z,84.95
2017-11-04T00:16:03.808Z,84.81
2017-11-04T00:16:44.242Z,83.95
2017-11-04T00:17:24.641Z,83.48
2017-11-04T00:18:05.063Z,83
2017-11-04T00:18:45.423Z,83.76
2017-11-04T00:19:25.835Z,83.19
2017-11-04T00:20:06.312Z,83
2017-11-04T00:20:46.735Z,83.15
2017-11-04T00:21:27.138Z,83.19
2017-11-04T00:22:07.616Z,83.82
2017-11-04T00:22:48.155Z,82.91
2017-11-04T00:23:28.529Z,83.34
2017-11-04T00:24:08.952Z,83.15
2017-11-04T00:24:49.322Z,83.72
2017-11-04T00:25:29.731Z,83.91
2017-11-04T00:26:10.152Z,83.72
2017-11-04T00:26:50.560Z,83.91
2017-11-04T00:27:30.957Z,83.72
2017-11-04T00:28:11.357Z,83.91
2017-11-04T00:28:51.800Z,83.72
2017-11-04T00:29:32.251Z,84.48
2017-11-04T00:30:12.687Z,84.48
2017-11-04T00:30:53.168Z,84.48
2017-11-04T00:31:33.627Z,84.67
2017-11-04T00:32:14.051Z,84.77
2017-11-04T00:32:54.432Z,86.1
2017-11-04T00:33:34.859Z,85.24
2017-11-04T00:34:15.384Z,84.77
2017-11-04T00:34:55.868Z,84.67
2017-11-04T00:35:36.308Z,85.43
2017-11-04T00:36:16.683Z,85.53
2017-11-04T00:36:57.041Z,85.53
2017-11-04T00:37:37.602Z,85.53
2017-11-04T00:38:18.066Z,84.77
2017-11-04T00:38:58.476Z,84.95
2017-11-04T00:39:38.825Z,84.67
2017-11-04T00:40:19.282Z,84.48
2017-11-04T00:40:59.672Z,84.77
2017-11-04T00:41:40.079Z,84.95
2017-11-04T00:42:20.406Z,84.48
2017-11-04T00:43:00.902Z,84.67
2017-11-04T00:43:41.259Z,84.43
2017-11-04T00:44:21.812Z,84.72
2017-11-04T00:45:02.251Z,83.58
2017-11-04T00:45:42.623Z,83
2017-11-04T00:46:22.981Z,83.67
2017-11-04T00:47:03.510Z,84.39
2017-11-04T00:47:43.974Z,84.62
2017-11-04T00:48:24.489Z,83.76
2017-11-04T00:49:04.876Z,83.67
2017-11-04T00:49:45.242Z,83.95
2017-11-04T00:50:25.701Z,83.48
2017-11-04T00:51:06.193Z,83.58
2017-11-04T00:51:46.565Z,83.48
2017-11-04T00:52:27.078Z,83.67
2017-11-04T00:53:07.379Z,84.14
2017-11-04T00:53:47.821Z,83.58
2017-11-04T00:54:28.220Z,83.67
2017-11-04T00:55:08.630Z,83.67
2017-11-04T00:55:49.001Z,83.58
2017-11-04T00:56:29.468Z,83.29
2017-11-04T00:57:09.842Z,83
2017-11-04T00:57:50.177Z,82.81
2017-11-04T00:58:30.604Z,82.91
2017-11-04T00:59:11.047Z,83.53
2017-11-04T00:59:51.529Z,83.76
2017-11-04T01:00:31.892Z,83.72
2017-11-04T01:01:12.287Z,83.34
2017-11-04T01:01:52.690Z,83.67
2017-11-04T01:02:33.106Z,83.86
2017-11-04T01:03:13.488Z,83.76
2017-11-04T01:03:53.846Z,83.39
2017-11-04T01:04:34.292Z,83.48
2017-11-04T01:05:14.723Z,83.67
2017-11-04T01:05:55.232Z,83.53
2017-11-04T01:06:35.657Z,83.67
2017-11-04T01:07:16.005Z,83.67
2017-11-04T01:07:56.400Z,84.24
2017-11-04T01:08:36.878Z,83.86
2017-11-04T01:09:17.286Z,83.86
2017-11-04T01:09:57.731Z,84.72
2017-11-04T01:10:38.072Z,83.86
2017-11-04T01:11:18.493Z,83.95
2017-11-04T01:11:58.886Z,83.76
2017-11-04T01:12:39.362Z,83.67
2017-11-04T01:13:19.843Z,83.19
2017-11-04T01:14:00.194Z,83.76
2017-11-04T01:14:40.622Z,83.29
2017-11-04T01:15:21.050Z,83.76
2017-11-04T01:16:01.484Z,83.76
2017-11-04T01:16:41.873Z,83.76
2017-11-04T01:17:22.278Z,83.86
2017-11-04T01:18:02.682Z,83.86
2017-11-04T01:18:43.006Z,83.86
2017-11-04T01:19:23.419Z,83.67
2017-11-04T01:20:03.804Z,83.67
2017-11-04T01:20:44.220Z,83
2017-11-04T01:21:24.692Z,83.72
2017-11-04T01:22:05.157Z,83.67
2017-11-04T01:22:45.528Z,84.2
2017-11-04T01:23:25.955Z,83.62
2017-11-04T01:24:06.412Z,83.62
2017-11-04T01:24:46.751Z,84.29
2017-11-04T01:25:27.130Z,83.62
2017-11-04T01:26:07.510Z,83.82
2017-11-04T01:26:47.966Z,83.62
2017-11-04T01:27:28.379Z,84.67
2017-11-04T01:28:08.785Z,84.48
2017-11-04T01:28:49.137Z,84.39
2017-11-04T01:29:29.539Z,84.67
2017-11-04T01:30:09.966Z,84.77
2017-11-04T01:30:50.418Z,84.77
2017-11-04T01:31:30.833Z,84.67
2017-11-04T01:32:11.316Z,84.29
2017-11-04T01:32:51.735Z,83.72
2017-11-04T01:33:32.120Z,84.01
2017-11-04T01:34:12.469Z,83.82
2017-11-04T01:34:52.916Z,83.72
2017-11-04T01:35:33.315Z,83.82
2017-11-04T01:36:13.779Z,84.67
2017-11-04T01:36:54.093Z,84.29
2017-11-04T01:37:34.517Z,83.62
2017-11-04T01:38:14.991Z,84.77
2017-11-04T01:38:55.451Z,84.77
2017-11-04T01:39:35.811Z,84.58
2017-11-04T01:40:16.365Z,84.39
2017-11-04T01:40:56.788Z,84.48
2017-11-04T01:41:37.084Z,84.95
2017-11-04T01:42:17.503Z,85.34
2017-11-04T01:42:58.021Z,84.86
2017-11-04T01:43:38.523Z,84.48
2017-11-04T01:44:18.919Z,84.29
2017-11-04T01:44:59.367Z,84.29
2017-11-04T01:45:39.805Z,84.67
2017-11-04T01:46:20.201Z,84.29
2017-11-04T01:47:00.631Z,84.95
2017-11-04T01:47:41.048Z,84.77
2017-11-04T01:48:21.417Z,84.95
2017-11-04T01:49:01.811Z,85.05
2017-11-04T01:49:42.348Z,84.86
2017-11-04T01:50:22.762Z,85.53
2017-11-04T01:51:03.104Z,85.34
2017-11-04T01:51:43.565Z,85.24
2017-11-04T01:52:23.909Z,85.53
2017-11-04T01:53:04.345Z,85.62
2017-11-04T01:53:44.726Z,85.34
2017-11-04T01:54:25.164Z,85.24
2017-11-04T01:55:05.573Z,84.95
2017-11-04T01:55:45.973Z,84.95
2017-11-04T01:56:26.331Z,84.86
2017-11-04T01:57:06.753Z,84.86
2017-11-04T01:57:47.079Z,84.95
2017-11-04T01:58:27.510Z,84.39
2017-11-04T01:59:07.891Z,83.82
2017-11-04T01:59:48.339Z,83.82
2017-11-04T02:00:28.728Z,84.39
2017-11-04T02:01:09.155Z,84.77
2017-11-04T02:01:49.538Z,84.95
2017-11-04T02:02:30.050Z,84.48
2017-11-04T02:03:10.410Z,84.67
2017-11-04T02:03:50.824Z,84.48
2017-11-04T02:04:31.306Z,84.81
2017-11-04T02:05:11.622Z,84.52
2017-11-04T02:05:52.155Z,83.86
2017-11-04T02:06:32.596Z,83.95
2017-11-04T02:07:13.043Z,83.82
2017-11-04T02:07:53.425Z,83.91
2017-11-04T02:08:33.828Z,83.53
2017-11-04T02:09:14.403Z,83.82
2017-11-04T02:09:54.842Z,84.39
2017-11-04T02:10:35.241Z,84.86
2017-11-04T02:11:15.679Z,84.86
2017-11-04T02:11:56.026Z,84.77
2017-11-04T02:12:36.522Z,85.62
2017-11-04T02:13:16.898Z,85.53
2017-11-04T02:13:57.322Z,85.15
2017-11-04T02:14:37.792Z,85.24
2017-11-04T02:15:18.178Z,84.95
2017-11-04T02:15:58.611Z,85.34
2017-11-04T02:16:39.131Z,85.43
2017-11-04T02:17:19.531Z,85.15
2017-11-04T02:17:59.964Z,85.43
2017-11-04T02:18:40.400Z,85.34
2017-11-04T02:19:20.834Z,85.53
2017-11-04T02:20:01.212Z,85.72
2017-11-04T02:20:41.718Z,85.43
2017-11-04T02:21:22.206Z,85.43
2017-11-04T02:22:02.660Z,86.19
2017-11-04T02:22:43.141Z,85.72
2017-11-04T02:23:23.595Z,86.67
2017-11-04T02:24:03.950Z,85.81
2017-11-04T02:24:44.398Z,86
2017-11-04T02:25:24.855Z,86
2017-11-04T02:26:05.265Z,85.62
2017-11-04T02:26:45.686Z,85.05
2017-11-04T02:27:26.168Z,85.62
2017-11-04T02:28:06.541Z,85.43
2017-11-04T02:28:46.990Z,85.43
2017-11-04T02:29:27.499Z,85.62
2017-11-04T02:30:07.916Z,85.34
2017-11-04T02:30:48.317Z,85.24
2017-11-04T02:31:28.789Z,85.34
2017-11-04T02:32:09.163Z,85.62
2017-11-04T02:32:49.588Z,85.43
2017-11-04T02:33:30.012Z,85.53
2017-11-04T02:34:10.364Z,85.34
2017-11-04T02:34:50.822Z,85.43
2017-11-04T02:35:31.362Z,85.53
2017-11-04T02:36:11.805Z,85.43
2017-11-04T02:36:52.189Z,85.43
2017-11-04T02:37:32.615Z,85.43
2017-11-04T02:38:13.015Z,85.62
2017-11-04T02:38:53.352Z,85.43
2017-11-04T02:39:33.841Z,85.34
2017-11-04T02:40:14.325Z,85.62
2017-11-04T02:40:54.697Z,85.43
2017-11-04T02:41:35.126Z,85.43
2017-11-04T02:42:15.541Z,85.15
2017-11-04T02:42:55.939Z,85.43
2017-11-04T02:43:36.325Z,85.43
2017-11-04T02:44:16.729Z,85.43
2017-11-04T02:44:57.090Z,85.24
2017-11-04T02:45:37.525Z,85.34
2017-11-04T02:46:17.969Z,85.34
2017-11-04T02:46:58.375Z,85.43
2017-11-04T02:47:38.759Z,85.72
2017-11-04T02:48:19.251Z,86.19
2017-11-04T02:48:59.645Z,86.1
2017-11-04T02:49:40.046Z,85.53
2017-11-04T02:50:20.468Z,85.34
2017-11-04T02:51:00.846Z,85.53
2017-11-04T02:51:41.301Z,85.15
2017-11-04T02:52:21.683Z,85.43
2017-11-04T02:53:02.100Z,85.24
2017-11-04T02:53:42.491Z,85.43
2017-11-04T02:54:22.942Z,86
2017-11-04T02:55:03.295Z,86.1
2017-11-04T02:55:43.677Z,86.19
2017-11-04T02:56:24.106Z,85.91
2017-11-04T02:57:04.492Z,86.1
2017-11-04T02:57:44.914Z,85.91
2017-11-04T02:58:25.274Z,86.86
2017-11-04T02:59:05.691Z,86.38
2017-11-04T02:59:46.048Z,86.29
2017-11-04T03:00:26.438Z,86.47
2017-11-04T03:01:06.916Z,87.24
2017-11-04T03:01:47.338Z,86.47
2017-11-04T03:02:27.764Z,87.05
2017-11-04T03:03:08.220Z,86.47
2017-11-04T03:03:48.641Z,86.86
2017-11-04T03:04:29.113Z,86.95
2017-11-04T03:05:09.523Z,87.14
2017-11-04T03:05:49.935Z,86.86
2017-11-04T03:06:30.396Z,87.05
2017-11-04T03:07:10.637Z,86.95
2017-11-04T03:07:51.033Z,87.14
2017-11-04T03:08:31.496Z,87.52
2017-11-04T03:09:11.886Z,87.05
2017-11-04T03:09:52.292Z,87.43
2017-11-04T03:10:32.635Z,86.95
2017-11-04T03:11:13.102Z,87.43
2017-11-04T03:11:53.428Z,86.76
2017-11-04T03:12:33.854Z,87.05
2017-11-04T03:13:14.358Z,87.14
2017-11-04T03:13:54.717Z,86.95
2017-11-04T03:14:35.191Z,86.76
2017-11-04T03:15:15.579Z,87.14
2017-11-04T03:15:55.955Z,86.57
2017-11-04T03:16:36.333Z,86.38
2017-11-04T03:17:16.733Z,86.19
2017-11-04T03:17:57.119Z,87.05
2017-11-04T03:18:37.631Z,87.14
2017-11-04T03:19:18.039Z,86.76
2017-11-04T03:19:58.415Z,87.05
2017-11-04T03:20:38.816Z,86.47
2017-11-04T03:21:19.231Z,86.47
2017-11-04T03:21:59.576Z,86.29
2017-11-04T03:22:39.955Z,87.24
2017-11-04T03:23:20.424Z,86.86
2017-11-04T03:24:00.872Z,86.86
2017-11-04T03:24:41.314Z,87.14
2017-11-04T03:25:21.679Z,87.05
2017-11-04T03:26:02.084Z,87.14
2017-11-04T03:26:42.454Z,87.14
2017-11-04T03:27:22.849Z,87.62
2017-11-04T03:28:03.273Z,87.1
2017-11-04T03:28:43.717Z,87.43
2017-11-04T03:29:24.137Z,87.43
2017-11-04T03:30:04.511Z,87.43
2017-11-04T03:30:44.918Z,87.14
2017-11-04T03:31:25.378Z,87.14
2017-11-04T03:32:05.750Z,87.14
2017-11-04T03:32:46.118Z,86.47
2017-11-04T03:33:26.665Z,87.05
2017-11-04T03:34:07.019Z,86.95
2017-11-04T03:34:47.532Z,86.86
2017-11-04T03:35:28.034Z,86.86
2017-11-04T03:36:08.416Z,86.76
2017-11-04T03:36:48.797Z,86.95
2017-11-04T03:37:29.302Z,87.24
2017-11-04T03:38:09.692Z,86.95
2017-11-04T03:38:50.120Z,87.57
2017-11-04T03:39:30.611Z,87.24
2017-11-04T03:40:11.064Z,87.14
2017-11-04T03:40:51.456Z,87.1
2017-11-04T03:41:31.888Z,87.14
2017-11-04T03:42:12.279Z,87.52
2017-11-04T03:42:52.639Z,86.95
2017-11-04T03:43:33.085Z,87.05
2017-11-04T03:44:13.502Z,87.24
2017-11-04T03:44:53.897Z,86.95
2017-11-04T03:45:34.448Z,87.43
2017-11-04T03:46:14.870Z,87.1
2017-11-04T03:46:55.245Z,87.34
2017-11-04T03:47:35.640Z,87.57
2017-11-04T03:48:16.083Z,87.38
2017-11-04T03:48:56.436Z,87.57
2017-11-04T03:49:36.840Z,87.76
2017-11-04T03:50:17.379Z,87.67
2017-11-04T03:50:57.691Z,87.57
2017-11-04T03:51:38.112Z,87.76
2017-11-04T03:52:18.515Z,87.95
2017-11-04T03:52:58.933Z,87.76
2017-11-04T03:53:39.360Z,88.34
2017-11-04T03:54:19.759Z,88.62
2017-11-04T03:55:00.138Z,88.38
2017-11-04T03:55:40.562Z,88
2017-11-04T03:56:20.961Z,87.9
2017-11-04T03:57:01.385Z,87.62
2017-11-04T03:57:41.754Z,87.14
2017-11-04T03:58:22.224Z,87.14
2017-11-04T03:59:02.638Z,87.34
2017-11-04T03:59:43.068Z,87.05
2017-11-04T04:00:23.517Z,86.76
2017-11-04T04:01:03.968Z,86.95
2017-11-04T04:01:44.383Z,86.86
2017-11-04T04:41:29.742Z,94.27
2017-11-04T04:42:23.240Z,94.56
2017-11-04T04:43:05.716Z,94.27
2017-11-04T04:43:46.108Z,94.46
2017-11-04T04:44:26.536Z,94.65
2017-11-04T04:45:06.889Z,94.27
2017-11-04T04:45:47.288Z,94.56
2017-11-04T04:46:27.710Z,94.65
2017-11-04T04:47:08.082Z,95.41
2017-11-04T04:47:48.534Z,94.93
2017-11-04T04:48:28.972Z,95.51
2017-11-04T04:49:09.442Z,95.7
2017-11-04T04:49:49.853Z,95.31
2017-11-04T04:50:30.232Z,95.41
2017-11-04T04:51:10.620Z,95.51
2017-11-04T04:51:51.022Z,95.22
2017-11-04T04:52:31.455Z,94.56
2017-11-04T04:53:11.876Z,94.74
2017-11-04T04:53:52.348Z,94.93
2017-11-04T04:54:32.690Z,94.6
2017-11-04T04:55:13.093Z,93.89
2017-11-04T04:55:53.541Z,94.42
2017-11-04T04:56:33.952Z,93.94
2017-11-04T04:57:14.328Z,94.32
2017-11-04T04:57:54.779Z,94.03
2017-11-04T04:58:35.222Z,93.75
2017-11-04T04:59:15.588Z,92.8
2017-11-04T04:59:55.960Z,92.51
2017-11-04T05:00:36.383Z,92.8
2017-11-04T05:01:16.910Z,91.8
2017-11-04T05:01:57.315Z,91.61
2017-11-04T05:02:37.691Z,91.33
2017-11-04T05:03:18.075Z,91.13
2017-11-04T05:03:58.587Z,90.47
2017-11-04T05:04:39.031Z,90.56
2017-11-04T05:05:19.376Z,90.47
2017-11-04T05:05:59.836Z,90.47
2017-11-04T05:06:40.365Z,90.19
2017-11-04T05:07:20.654Z,90.19
2017-11-04T05:08:01.038Z,89.61
2017-11-04T05:08:41.541Z,89.14
2017-11-04T05:09:21.859Z,89.04
2017-11-04T05:10:02.317Z,89.04
2017-11-04T05:10:42.687Z,88.23
2017-11-04T05:11:23.109Z,88.71
2017-11-04T05:12:03.488Z,88.61
2017-11-04T05:12:43.912Z,88.23
2017-11-04T05:13:24.321Z,88.13
2017-11-04T05:14:04.926Z,87.85
2017-11-04T05:14:45.261Z,88.61
2017-11-04T05:15:25.708Z,88.8
2017-11-04T05:16:06.040Z,88.13
2017-11-04T05:16:46.469Z,88.33
2017-11-04T05:17:27.032Z,87.95
2017-11-04T05:18:07.386Z,88.71
2017-11-04T05:18:47.749Z,88.52
2017-11-04T05:19:28.207Z,88.8
2017-11-04T05:20:08.593Z,88.9
2017-11-04T05:20:48.985Z,88.23
2017-11-04T05:21:29.452Z,88.8
2017-11-04T05:22:09.842Z,88.9
2017-11-04T05:22:50.160Z,89.37
2017-11-04T05:23:30.569Z,89.18
2017-11-04T05:24:11.135Z,89.56
2017-11-04T05:24:51.582Z,89.75
2017-11-04T05:25:31.878Z,89.37
2017-11-04T05:26:12.366Z,89.56
2017-11-04T05:26:52.735Z,89.18
2017-11-04T05:27:33.115Z,90.14
2017-11-04T05:28:13.515Z,89.18
2017-11-04T05:28:53.968Z,89.47
2017-11-04T05:29:34.393Z,90.04
2017-11-04T05:30:14.764Z,90.23
2017-11-04T05:30:55.234Z,90.33
2017-11-04T05:31:35.693Z,90.14
2017-11-04T05:32:16.071Z,90.14
2017-11-04T05:32:56.429Z,89.85
2017-11-04T05:33:36.865Z,89.37
2017-11-04T05:34:17.321Z,89.18
2017-11-04T05:34:57.719Z,89.56
2017-11-04T05:35:38.132Z,89
2017-11-04T05:36:18.553Z,89.37
2017-11-04T05:36:58.911Z,89.28
2017-11-04T05:37:39.336Z,89.28
2017-11-04T05:38:19.707Z,89
2017-11-04T05:39:00.087Z,89.18
2017-11-04T05:39:40.539Z,89.66
2017-11-04T05:40:20.966Z,89.18
2017-11-04T05:41:01.324Z,89.75
2017-11-04T05:41:41.711Z,89.37
2017-11-04T05:42:22.181Z,89.75
2017-11-04T05:43:02.558Z,90.14
2017-11-04T05:43:43.056Z,89.66
2017-11-04T05:44:23.611Z,89.75
2017-11-04T05:45:04.009Z,90.04
2017-11-04T05:45:44.332Z,90.04
2017-11-04T05:46:24.793Z,90.33
2017-11-04T05:47:05.151Z,90.04
2017-11-04T05:47:45.581Z,90.14
2017-11-04T05:48:26.065Z,90.23
2017-11-04T05:49:06.415Z,89.75
2017-11-04T05:49:46.894Z,90.14
2017-11-04T05:50:27.399Z,90.04
2017-11-04T05:51:07.857Z,89.66
2017-11-04T05:51:48.269Z,89.56
2017-11-04T05:52:28.690Z,89.37
2017-11-04T05:53:09.153Z,89.37
2017-11-04T05:53:49.585Z,89.37
2017-11-04T05:54:30.075Z,90.04
2017-11-04T05:55:10.680Z,89.94
2017-11-04T05:55:51.087Z,90.14
2017-11-04T05:56:31.567Z,90.23
2017-11-04T05:57:11.965Z,90.04
2017-11-04T05:57:52.332Z,90.52
2017-11-04T05:58:32.915Z,90.23
2017-11-04T05:59:13.380Z,90.8
2017-11-04T05:59:53.775Z,90.56
2017-11-04T06:00:34.173Z,90.37
2017-11-04T06:01:14.633Z,90.7
2017-11-04T06:01:55.032Z,90.94
2017-11-04T06:02:35.417Z,91.04
2017-11-04T06:03:15.806Z,91.13
2017-11-04T06:03:56.310Z,91.33
2017-11-04T06:04:36.663Z,91.33
2017-11-04T06:05:17.097Z,91.18
2017-11-04T06:05:57.590Z,91.89
2017-11-04T06:06:38.087Z,91.61
2017-11-04T06:07:18.571Z,91.71
2017-11-04T06:07:59.012Z,91.8
2017-11-04T06:08:39.531Z,91.8
2017-11-04T06:09:19.931Z,91.8
2017-11-04T06:10:00.470Z,91.89
2017-11-04T06:10:40.898Z,91.8
2017-11-04T06:11:21.327Z,91.61
2017-11-04T06:12:01.807Z,91.8
2017-11-04T06:12:42.256Z,91.8
2017-11-04T06:13:22.601Z,91.89
2017-11-04T06:14:03.042Z,91.8
2017-11-04T06:14:43.579Z,91.99
2017-11-04T06:15:23.867Z,91.42
2017-11-04T06:16:04.344Z,91.85
2017-11-04T06:16:44.816Z,91.75
2017-11-04T06:17:25.293Z,91.71
2017-11-04T06:18:05.687Z,91.56
2017-11-04T06:18:46.133Z,91.71
2017-11-04T06:19:26.633Z,91.8
2017-11-04T06:20:07.069Z,91.61
2017-11-04T06:20:47.530Z,91.99
2017-11-04T06:21:27.823Z,91.61
2017-11-04T06:22:08.314Z,91.89
2017-11-04T06:22:48.759Z,91.8
2017-11-04T06:23:29.170Z,91.99
2017-11-04T06:24:09.818Z,91.99
2017-11-04T06:24:50.221Z,92.08
2017-11-04T06:25:30.584Z,91.8
2017-11-04T06:26:11.165Z,91.61
2017-11-04T06:26:51.572Z,91.89
2017-11-04T06:27:32.004Z,91.89
2017-11-04T06:28:12.448Z,91.89
2017-11-04T06:28:52.881Z,92.08
2017-11-04T06:29:33.263Z,91.99
2017-11-04T06:30:13.681Z,91.89
2017-11-04T06:30:54.126Z,91.85
2017-11-04T06:31:34.595Z,91.99
2017-11-04T06:32:15.119Z,91.33
2017-11-04T06:32:55.590Z,91.61
2017-11-04T06:33:35.999Z,91.61
2017-11-04T06:34:16.551Z,91.8
2017-11-04T06:34:56.979Z,91.42
2017-11-04T06:35:37.426Z,91.8
2017-11-04T06:36:17.879Z,91.71
2017-11-04T06:36:58.304Z,91.61
2017-11-04T06:37:38.723Z,91.42
2017-11-04T06:38:19.199Z,91.71
2017-11-04T06:38:59.641Z,91.8
2017-11-04T06:39:40.091Z,91.99
2017-11-04T06:40:20.465Z,91.61
2017-11-04T06:41:00.871Z,91.8
2017-11-04T06:41:41.293Z,91.71
2017-11-04T06:42:21.640Z,91.61
2017-11-04T06:43:02.107Z,91.61
2017-11-04T06:43:42.487Z,91.75
2017-11-04T06:44:22.893Z,91.66
2017-11-04T06:45:03.274Z,92.22
2017-11-04T06:45:43.702Z,91.75
2017-11-04T06:46:24.074Z,92.13
2017-11-04T06:47:04.500Z,91.94
2017-11-04T06:47:44.847Z,91.66
2017-11-04T06:48:25.243Z,91.66
2017-11-04T06:49:05.754Z,91.75
2017-11-04T06:49:46.088Z,91.94
2017-11-04T06:50:26.485Z,91.85
2017-11-04T06:51:06.904Z,91.66
2017-11-04T06:51:47.298Z,91.08
2017-11-04T06:52:27.691Z,91.37
2017-11-04T06:53:08.114Z,91.18
2017-11-04T06:53:48.485Z,90.99
2017-11-04T06:54:28.882Z,91.28
2017-11-04T06:55:09.383Z,90.42
2017-11-04T06:55:49.743Z,90.99
2017-11-04T06:56:30.892Z,90.99
2017-11-04T06:57:11.342Z,90.99
2017-11-04T06:57:51.772Z,91.18
2017-11-04T06:58:32.171Z,91.28
2017-11-04T06:59:12.598Z,90.99
2017-11-04T06:59:52.977Z,90.89
2017-11-04T07:00:33.388Z,91.08
2017-11-04T07:01:13.937Z,90.52
2017-11-04T07:01:54.287Z,90.61
2017-11-04T07:02:34.811Z,90.42
2017-11-04T07:03:15.282Z,90.61
2017-11-04T07:03:55.718Z,90.61
2017-11-04T07:04:36.118Z,90.61
2017-11-04T07:05:16.528Z,90.89
2017-11-04T07:05:56.884Z,90.8
2017-11-04T07:06:37.285Z,90.7
2017-11-04T07:07:17.748Z,90.8
2017-11-04T07:07:58.176Z,90.42
2017-11-04T07:08:38.620Z,90.52
2017-11-04T07:09:19.106Z,90.52
2017-11-04T07:09:59.534Z,90.52
2017-11-04T07:10:39.884Z,90.42
2017-11-04T07:11:20.266Z,90.61
2017-11-04T07:12:00.871Z,90.33
2017-11-04T07:12:41.226Z,90.33
2017-11-04T07:13:21.634Z,90.23
2017-11-04T07:14:02.039Z,89.85
2017-11-04T07:14:42.562Z,90.04
2017-11-04T07:15:23.071Z,89.94
2017-11-04T07:16:03.533Z,89.47
2017-11-04T07:16:43.935Z,89.56
2017-11-04T07:17:24.359Z,89.56
2017-11-04T07:18:04.846Z,89.8
2017-11-04T07:18:45.250Z,89.56
2017-11-04T07:19:25.730Z,89.28
2017-11-04T07:20:06.147Z,89.66
2017-11-04T07:20:46.497Z,89.37
2017-11-04T07:21:26.902Z,89.18
2017-11-04T07:22:07.346Z,89.23
2017-11-04T07:22:47.763Z,89.28
2017-11-04T07:23:28.162Z,89.42
2017-11-04T07:24:08.539Z,89.23
2017-11-04T07:24:49.101Z,89.32
2017-11-04T07:25:29.471Z,89.28
2017-11-04T07:26:09.863Z,89.42
2017-11-04T07:26:50.278Z,89.18
2017-11-04T07:27:30.789Z,89.23
2017-11-04T07:28:11.211Z,89.04
2017-11-04T07:28:51.571Z,89.42
2017-11-04T07:29:31.962Z,89.37
2017-11-04T07:30:12.518Z,89.32
2017-11-04T07:30:52.873Z,89.42
2017-11-04T07:31:33.329Z,89.32
2017-11-04T07:32:13.810Z,89.32
2017-11-04T07:32:54.212Z,89.28
2017-11-04T07:33:34.624Z,89.42
2017-11-04T07:34:15.085Z,89.23
2017-11-04T07:34:55.414Z,89.51
2017-11-04T07:35:35.848Z,89.66
2017-11-04T07:36:16.227Z,89.47
2017-11-04T07:36:56.688Z,89.56
2017-11-04T07:37:37.086Z,89.37
2017-11-04T07:38:17.467Z,90.14
2017-11-04T07:38:57.904Z,90.14
2017-11-04T07:39:38.243Z,89.85
2017-11-04T07:40:18.707Z,90.33
2017-11-04T07:40:59.114Z,90.42
2017-11-04T07:41:39.482Z,90.52
2017-11-04T07:42:20.079Z,90.7
2017-11-04T07:43:01.089Z,91.08
2017-11-04T07:43:41.931Z,91.08
2017-11-04T07:44:22.304Z,90.52
2017-11-04T07:45:02.689Z,90.04
2017-11-04T07:45:43.177Z,89.85
2017-11-04T07:46:23.567Z,90.04
2017-11-04T07:47:04.218Z,89.8
2017-11-04T07:47:44.565Z,89.04
2017-11-04T07:48:25.063Z,88.85
2017-11-04T07:49:05.522Z,88.66
2017-11-04T07:49:46.014Z,87.99
2017-11-04T07:50:26.398Z,87.23
2017-11-04T07:51:06.785Z,87.23
2017-11-04T07:51:47.263Z,87.13
2017-11-04T07:52:27.725Z,87.08
2017-11-04T07:53:08.347Z,86.85
2017-11-04T07:53:48.703Z,87.18
2017-11-04T07:54:29.170Z,86.7
2017-11-04T07:55:09.614Z,86.22
2017-11-04T07:55:50.165Z,86.22
2017-11-04T07:56:30.602Z,85.37
2017-11-04T07:57:11.002Z,85.47
2017-11-04T07:57:51.395Z,85.47
2017-11-04T07:58:31.928Z,85.47
2017-11-04T07:59:12.367Z,84.56
2017-11-04T07:59:52.739Z,84.08
2017-11-04T08:00:33.136Z,83.89
2017-11-04T08:01:13.531Z,84.36
2017-11-04T08:01:54.029Z,83.8
2017-11-04T08:02:34.512Z,83.22
2017-11-04T08:03:17.720Z,82.46
2017-11-04T08:03:58.332Z,82.21
2017-11-04T08:04:38.713Z,82.03
2017-11-04T08:05:19.107Z,81.36
2017-11-04T08:05:59.513Z,81.17
2017-11-04T08:06:39.951Z,81.17
2017-11-04T08:07:20.518Z,80.79
2017-11-04T08:08:00.948Z,80.98
2017-11-04T08:08:41.376Z,81.26
2017-11-04T08:09:21.785Z,80.88
2017-11-04T08:10:02.219Z,81.46
2017-11-04T08:10:42.646Z,81.26
2017-11-04T08:11:22.988Z,81.26
2017-11-04T08:12:03.388Z,81.17
2017-11-04T08:12:43.845Z,80.98
2017-11-04T08:13:24.328Z,80.79
2017-11-04T08:14:04.726Z,80.26
2017-11-04T08:14:45.162Z,80.35
2017-11-04T08:15:25.608Z,80.16
2017-11-04T08:16:06.066Z,79.59
2017-11-04T08:16:46.422Z,79.49
2017-11-04T08:17:26.848Z,79.11
2017-11-04T08:18:07.303Z,79.3
2017-11-04T08:18:47.802Z,78.58
2017-11-04T08:19:28.237Z,79.15
2017-11-04T08:20:08.638Z,78.67
2017-11-04T08:20:49.075Z,77.82
2017-11-04T08:21:29.450Z,78.01
2017-11-04T08:22:09.883Z,77.62
2017-11-04T08:22:50.311Z,77.67
2017-11-04T08:23:30.793Z,77.19
2017-11-04T08:24:11.192Z,76.52
2017-11-04T08:24:51.666Z,76.33
2017-11-04T08:25:32.010Z,75.95
2017-11-04T08:26:12.385Z,75.66
2017-11-04T08:26:52.813Z,75.42
2017-11-04T08:27:33.173Z,74.74
2017-11-04T08:28:13.680Z,75.32
2017-11-04T08:28:54.197Z,74.46
2017-11-04T08:29:34.584Z,74.27
2017-11-04T08:30:15.113Z,74.4
2017-11-04T08:30:55.496Z,73.92
2017-11-04T08:31:35.916Z,73.54
2017-11-04T08:32:16.305Z,73.73
2017-11-04T08:32:56.744Z,73.25
2017-11-04T08:33:37.186Z,73.25
2017-11-04T08:34:17.579Z,73.54
2017-11-04T08:34:57.971Z,73.35
2017-11-04T08:35:38.447Z,72.68
2017-11-04T08:36:18.778Z,73.35
2017-11-04T08:36:59.280Z,72.72
2017-11-04T08:37:39.769Z,72.72
2017-11-04T08:38:20.177Z,72.24
2017-11-04T08:39:00.554Z,72.14
2017-11-04T08:39:40.995Z,71.67
2017-11-04T08:40:21.417Z,71.8
2017-11-04T08:41:01.810Z,71.13
2017-11-04T08:41:42.201Z,71.03
2017-11-04T08:42:22.724Z,70.84
2017-11-04T08:43:03.042Z,70.65
2017-11-04T08:43:43.488Z,70.01
2017-11-04T08:44:23.929Z,69.82
2017-11-04T08:45:04.457Z,69.73
2017-11-04T08:45:44.903Z,69.64
2017-11-04T08:46:25.458Z,69.54
2017-11-04T08:47:05.934Z,68.87
2017-11-04T08:47:46.452Z,68.23
2017-11-04T08:48:27.118Z,68.23
2017-11-04T08:49:07.454Z,68.13
2017-11-04T08:49:47.851Z,67.66
2017-11-04T08:50:28.255Z,67.27
2017-11-04T08:51:08.810Z,67.21
2017-11-04T08:51:49.366Z,66.54
2017-11-04T08:52:29.893Z,66.25
2017-11-04T08:53:13.325Z,65.97
2017-11-04T08:53:53.771Z,65.88
2017-11-04T08:54:34.182Z,65.3
2017-11-04T08:55:18.402Z,65.2
2017-11-04T08:56:08.432Z,65.05
2017-11-04T08:56:48.842Z,65.14
2017-11-04T08:57:29.288Z,65.3
2017-11-04T08:58:09.716Z,65.39
2017-11-04T08:58:50.140Z,65.49
2017-11-04T08:59:30.467Z,65.78
2017-11-04T09:00:10.948Z,66.06
2017-11-04T09:00:51.398Z,65.97
2017-11-04T09:01:31.735Z,65.49
2017-11-04T09:02:12.181Z,65.39
2017-11-04T09:02:52.624Z,65.88
2017-11-04T09:03:32.987Z,65.78
2017-11-04T09:04:13.409Z,65.68
2017-11-04T09:04:53.790Z,66.16
2017-11-04T09:05:34.233Z,66.64
2017-11-04T09:06:14.895Z,67.02
2017-11-04T09:06:55.244Z,67.27
2017-11-04T09:07:35.740Z,67.85
2017-11-04T09:08:16.187Z,67.76
2017-11-04T09:08:56.560Z,68.23
2017-11-04T09:09:37.065Z,68.13
2017-11-04T09:10:17.460Z,68.23
2017-11-04T09:10:57.946Z,68.13
2017-11-04T09:11:38.318Z,69.09
2017-11-04T09:12:18.816Z,68.9
2017-11-04T09:12:59.181Z,69
2017-11-04T09:13:39.687Z,69.09
2017-11-04T09:14:20.137Z,69.76
2017-11-04T09:15:00.562Z,69.76
2017-11-04T09:15:41.068Z,69.67
2017-11-04T09:16:21.561Z,70.05
2017-11-04T09:17:01.958Z,70.3
2017-11-04T09:17:42.425Z,70.68
2017-11-04T09:18:22.932Z,70.59
2017-11-04T09:19:03.319Z,71.26
2017-11-04T09:19:43.826Z,72.12
2017-11-04T09:20:24.275Z,72.18
2017-11-04T09:21:04.856Z,72.79
2017-11-04T09:21:45.202Z,72.79
2017-11-04T09:22:25.682Z,72.69
2017-11-04T09:23:06.295Z,72.5
2017-11-04T09:23:46.750Z,71.83